createdAt,value
2023-01-04T00:00:42.090Z,9.00
2023-01-04T00:03:19.858Z,9.00
2023-01-04T00:05:48.605Z,9.00
2023-01-04T00:08:18.163Z,8.90
2023-01-04T00:10:49.120Z,8.70
2023-01-04T00:13:18.030Z,8.70
2023-01-04T00:15:48.701Z,8.80
2023-01-04T00:18:20.537Z,8.80
2023-01-04T00:20:48.582Z,8.80
2023-01-04T00:23:20.208Z,8.70
2023-01-04T00:25:48.633Z,9.00
2023-01-04T00:28:17.799Z,8.90
2023-01-04T00:30:46.303Z,9.20
2023-01-04T00:33:14.481Z,9.10
2023-01-04T00:35:46.189Z,9.20
2023-01-04T00:38:15.366Z,9.10
2023-01-04T00:40:49.472Z,8.90
2023-01-04T00:43:18.545Z,9.10
2023-01-04T00:45:46.639Z,9.20
2023-01-04T00:48:15.147Z,9.40
2023-01-04T00:50:45.536Z,9.40
2023-01-04T00:53:14.521Z,9.40
2023-01-04T00:55:48.761Z,9.00
2023-01-04T00:58:16.848Z,8.90
2023-01-04T01:00:45.505Z,9.10
2023-01-04T01:03:16.282Z,9.10
2023-01-04T01:05:44.363Z,9.30
2023-01-04T01:08:27.409Z,9.40
2023-01-04T01:11:03.945Z,9.10
2023-01-04T01:13:35.637Z,9.20
2023-01-04T01:16:06.346Z,9.30
2023-01-04T01:18:36.373Z,9.20
2023-01-04T01:21:06.378Z,9.20
2023-01-04T01:23:37.174Z,9.20
2023-01-04T01:26:09.711Z,9.30
2023-01-04T01:28:37.812Z,9.10
2023-01-04T01:31:08.823Z,9.50
2023-01-04T01:33:38.646Z,9.10
2023-01-04T01:36:10.735Z,9.20
2023-01-04T01:38:39.557Z,9.20
2023-01-04T01:44:06.927Z,9.10
2023-01-04T01:46:39.506Z,9.40
2023-01-04T01:49:15.739Z,9.30
2023-01-04T01:51:45.315Z,9.40
2023-01-04T01:54:18.508Z,9.30
2023-01-04T01:56:52.337Z,9.20
2023-01-04T01:59:22.023Z,9.30
2023-01-04T02:01:50.628Z,8.90
2023-01-04T02:04:21.655Z,8.60
2023-01-04T02:06:52.061Z,8.90
2023-01-04T02:12:06.308Z,9.10
2023-01-04T02:14:35.247Z,9.20
2023-01-04T02:17:10.224Z,9.50
2023-01-04T02:19:58.040Z,9.40
2023-01-04T02:23:02.016Z,8.90
2023-01-04T02:25:56.784Z,9.20
2023-01-04T02:28:41.111Z,9.20
2023-01-04T02:31:29.867Z,9.10
2023-01-04T02:34:08.947Z,8.80
2023-01-04T02:36:43.817Z,9.00
2023-01-04T02:39:24.975Z,9.10
2023-01-04T02:41:59.016Z,9.10
2023-01-04T02:44:51.241Z,9.30
2023-01-04T02:47:39.278Z,9.10
2023-01-04T02:50:32.895Z,9.00
2023-01-04T02:53:04.226Z,8.70
2023-01-04T02:55:55.846Z,8.50
2023-01-04T02:58:41.528Z,8.60
2023-01-04T03:01:33.900Z,8.50
2023-01-04T03:04:37.206Z,8.50
2023-01-04T03:07:16.452Z,8.50
2023-01-04T03:09:51.352Z,8.80
2023-01-04T03:12:32.262Z,9.00
2023-01-04T03:15:10.548Z,8.60
2023-01-04T03:17:45.397Z,8.90
2023-01-04T03:20:18.265Z,8.80
2023-01-04T03:23:09.220Z,8.70
2023-01-04T03:26:00.836Z,8.90
2023-01-04T03:28:49.982Z,8.90
2023-01-04T03:31:40.467Z,8.90
2023-01-04T03:34:27.058Z,8.60
2023-01-04T03:37:13.382Z,8.80
2023-01-04T03:40:39.243Z,8.60
2023-01-04T03:43:29.712Z,8.60
2023-01-04T03:46:27.233Z,8.80
2023-01-04T03:49:03.364Z,8.60
2023-01-04T03:51:36.105Z,8.70
2023-01-04T03:54:16.759Z,8.60
2023-01-04T03:56:47.124Z,8.90
2023-01-04T03:59:17.522Z,8.70
2023-01-04T04:01:46.993Z,8.90
2023-01-04T04:04:35.650Z,9.10
2023-01-04T04:07:25.809Z,9.40
2023-01-04T04:09:55.368Z,9.30
2023-01-04T04:12:23.616Z,9.30
2023-01-04T04:14:52.031Z,8.90
2023-01-04T04:17:20.533Z,8.90
2023-01-04T04:19:50.237Z,9.20
2023-01-04T04:22:24.046Z,8.90
2023-01-04T04:24:53.026Z,8.90
2023-01-04T04:27:22.587Z,9.00
2023-01-04T04:29:51.974Z,9.10
2023-01-04T04:32:22.837Z,9.10
2023-01-04T04:34:50.846Z,9.20
2023-01-04T04:37:26.951Z,8.90
2023-01-04T04:39:55.750Z,9.00
2023-01-04T04:42:24.202Z,8.70
2023-01-04T04:44:56.203Z,8.80
2023-01-04T04:47:24.597Z,8.90
2023-01-04T04:49:52.612Z,9.10
2023-01-04T04:52:21.988Z,9.10
2023-01-04T04:54:49.975Z,9.20
2023-01-04T04:57:18.476Z,9.00
2023-01-04T04:59:48.796Z,9.00
2023-01-04T05:02:20.053Z,9.00
2023-01-04T05:04:48.803Z,9.30
2023-01-04T05:07:17.146Z,9.30
2023-01-04T05:09:45.593Z,9.30
2023-01-04T05:12:31.805Z,9.20
2023-01-04T05:15:03.388Z,8.90
2023-01-04T05:17:39.224Z,9.10
2023-01-04T05:20:12.101Z,9.10
2023-01-04T05:22:43.219Z,8.90
2023-01-04T05:25:12.549Z,9.00
2023-01-04T05:27:40.923Z,9.20
2023-01-04T05:30:36.076Z,9.40
2023-01-04T05:33:09.694Z,9.40
2023-01-04T05:35:42.856Z,9.30
2023-01-04T05:38:13.546Z,9.90
2023-01-04T05:40:42.134Z,9.50
2023-01-04T05:43:14.036Z,9.50
2023-01-04T05:45:54.283Z,9.70
2023-01-04T05:48:24.980Z,9.70
2023-01-04T05:50:54.811Z,9.90
2023-01-04T05:53:34.016Z,9.90
2023-01-04T05:56:09.337Z,9.70
2023-01-04T05:58:40.653Z,9.50
2023-01-04T06:01:10.051Z,9.30
2023-01-04T06:03:38.828Z,9.50
2023-01-04T06:06:07.670Z,9.70
2023-01-04T06:08:35.762Z,9.70
2023-01-04T06:11:03.843Z,9.90
2023-01-04T06:13:34.997Z,9.70
2023-01-04T06:16:02.991Z,9.90
2023-01-04T06:18:34.410Z,9.70
2023-01-04T06:21:05.751Z,9.70
2023-01-04T06:23:33.768Z,10.00
2023-01-04T06:26:01.768Z,10.30
2023-01-04T06:28:40.322Z,10.40
2023-01-04T06:31:13.317Z,10.20
2023-01-04T06:33:45.511Z,10.30
2023-01-04T06:36:19.606Z,10.30
2023-01-04T06:38:49.345Z,10.50
2023-01-04T06:41:17.830Z,10.00
2023-01-04T06:43:46.318Z,10.30
2023-01-04T06:46:17.166Z,10.30
2023-01-04T06:48:53.771Z,10.20
2023-01-04T06:51:22.724Z,10.30
2023-01-04T06:53:52.933Z,10.60
2023-01-04T06:56:24.633Z,10.40
2023-01-04T06:58:54.866Z,10.50
2023-01-04T07:01:24.190Z,9.90
2023-01-04T07:03:53.725Z,10.30
2023-01-04T07:06:21.977Z,10.60
2023-01-04T07:08:53.154Z,10.60
2023-01-04T07:11:21.451Z,10.60
2023-01-04T07:13:49.612Z,10.60
2023-01-04T07:16:18.126Z,10.70
2023-01-04T07:18:54.801Z,10.30
2023-01-04T07:21:25.713Z,10.30
2023-01-04T07:23:53.702Z,10.10
2023-01-04T07:26:22.364Z,10.40
2023-01-04T07:29:04.847Z,10.20
2023-01-04T07:31:41.153Z,10.20
2023-01-04T07:34:09.805Z,10.10
2023-01-04T07:36:40.296Z,10.10
2023-01-04T07:39:10.676Z,10.40
2023-01-04T07:41:38.971Z,10.60
2023-01-04T07:44:07.862Z,10.40
2023-01-04T07:46:39.297Z,10.30
2023-01-04T07:49:11.677Z,10.50
2023-01-04T07:51:54.442Z,10.40
2023-01-04T07:54:23.976Z,10.50
2023-01-04T07:56:54.676Z,10.40
2023-01-04T07:59:25.241Z,10.50
2023-01-04T08:01:53.369Z,10.40
2023-01-04T08:04:28.327Z,10.40
2023-01-04T08:07:00.697Z,10.40
2023-01-04T08:09:29.174Z,10.50
2023-01-04T08:11:57.388Z,10.50
2023-01-04T08:14:25.435Z,10.60
2023-01-04T08:16:54.748Z,10.80
2023-01-04T08:19:23.284Z,10.80
2023-01-04T08:21:51.431Z,10.60
2023-01-04T08:24:21.507Z,10.40
2023-01-04T08:26:52.671Z,10.40
2023-01-04T08:29:21.391Z,10.60
2023-01-04T08:31:49.504Z,10.70
2023-01-04T08:34:23.324Z,11.00
2023-01-04T08:36:53.242Z,10.70
2023-01-04T08:39:22.673Z,10.60
2023-01-04T08:44:45.204Z,10.50
2023-01-04T08:47:14.521Z,10.70
2023-01-04T08:49:42.877Z,10.90
2023-01-04T08:52:12.161Z,10.70
2023-01-04T08:54:41.562Z,10.50
2023-01-04T08:57:09.642Z,10.60
2023-01-04T08:59:37.705Z,10.80
2023-01-04T09:02:19.954Z,10.70
2023-01-04T09:04:48.757Z,10.80
2023-01-04T09:07:19.986Z,10.70
2023-01-04T09:09:52.060Z,10.90
2023-01-04T09:12:20.152Z,10.80
2023-01-04T09:14:50.169Z,10.90
2023-01-04T09:17:24.263Z,10.80
2023-01-04T09:19:54.703Z,10.80
2023-01-04T09:22:25.789Z,11.00
2023-01-04T09:25:06.430Z,11.10
2023-01-04T09:27:34.768Z,11.00
2023-01-04T09:30:02.811Z,10.80
2023-01-04T09:32:39.393Z,11.00
2023-01-04T09:35:08.472Z,11.00
2023-01-04T09:37:36.465Z,11.00
2023-01-04T09:40:08.307Z,11.00
2023-01-04T09:42:44.014Z,11.00
2023-01-04T09:45:24.611Z,10.90
2023-01-04T09:48:01.793Z,10.90
2023-01-04T09:50:35.546Z,10.90
2023-01-04T09:53:10.494Z,10.90
2023-01-04T09:55:46.093Z,11.00
2023-01-04T09:58:25.684Z,11.10
2023-01-04T10:01:01.988Z,11.10
2023-01-04T10:03:33.799Z,11.00
2023-01-04T10:06:04.010Z,11.10
2023-01-04T10:08:32.316Z,11.10
2023-01-04T10:11:13.743Z,11.30
2023-01-04T10:14:03.934Z,11.50
2023-01-04T10:23:14.101Z,11.60
2023-01-04T10:25:51.046Z,11.70
2023-01-04T10:28:38.247Z,11.60
2023-01-04T10:31:40.467Z,11.50
2023-01-04T10:34:19.057Z,11.60
2023-01-04T10:36:48.374Z,11.60
2023-01-04T10:39:19.458Z,11.60
2023-01-04T10:41:56.273Z,11.60
2023-01-04T10:44:34.919Z,11.50
2023-01-04T10:47:10.464Z,11.60
2023-01-04T10:49:45.023Z,11.60
2023-01-04T10:52:21.038Z,11.40
2023-01-04T10:55:02.163Z,11.50
2023-01-04T10:57:39.874Z,11.70
2023-01-04T11:00:16.111Z,11.50
2023-01-04T11:02:49.492Z,11.50
2023-01-04T11:05:23.017Z,11.60
2023-01-04T11:07:56.590Z,11.80
2023-01-04T11:10:29.161Z,11.70
2023-01-04T11:12:57.356Z,11.60
2023-01-04T11:15:30.693Z,11.70
2023-01-04T11:18:03.920Z,11.80
2023-01-04T11:20:38.232Z,11.80
2023-01-04T11:23:11.985Z,11.70
2023-01-04T11:25:50.336Z,11.70
2023-01-04T11:28:26.556Z,11.80
2023-01-04T11:31:06.454Z,11.80
2023-01-04T11:33:53.569Z,11.80
2023-01-04T11:36:40.004Z,11.90
2023-01-04T11:39:22.375Z,11.70
2023-01-04T11:42:03.056Z,11.70
2023-01-04T11:44:33.435Z,11.80
2023-01-04T11:47:17.987Z,11.80
2023-01-04T11:49:46.495Z,11.90
2023-01-04T11:52:31.680Z,12.10
2023-01-04T11:55:18.073Z,12.00
2023-01-04T11:57:46.234Z,12.00
2023-01-04T12:00:16.977Z,11.90
2023-01-04T12:03:03.082Z,11.90
2023-01-04T12:05:33.570Z,11.80
2023-01-04T12:08:05.162Z,11.80
2023-01-04T12:10:34.691Z,11.90
2023-01-04T12:13:05.951Z,11.90
2023-01-04T12:15:40.289Z,12.00
2023-01-04T12:18:18.414Z,11.90
2023-01-04T12:20:46.846Z,11.90
2023-01-04T12:23:17.911Z,12.10
2023-01-04T12:25:50.058Z,12.20
2023-01-04T12:28:37.732Z,12.20
2023-01-04T12:31:32.664Z,12.00
2023-01-04T12:34:44.835Z,11.80
2023-01-04T12:37:49.938Z,11.90
2023-01-04T12:40:56.023Z,11.90
2023-01-04T12:43:26.540Z,11.80
2023-01-04T12:46:52.672Z,11.90
2023-01-04T12:49:52.677Z,11.90
2023-01-04T12:53:01.855Z,11.80
2023-01-04T12:55:58.978Z,11.70
2023-01-04T13:02:23.958Z,11.80
2023-01-04T13:05:25.667Z,11.90
2023-01-04T13:07:49.062Z,11.90
2023-01-04T13:10:30.368Z,11.80
2023-01-04T13:13:28.695Z,11.90
2023-01-04T13:16:11.348Z,12.00
2023-01-04T13:18:42.668Z,12.10
2023-01-04T13:21:15.751Z,12.00
2023-01-04T13:23:54.427Z,12.00
2023-01-04T13:26:38.925Z,12.10
2023-01-04T13:29:21.853Z,12.10
2023-01-04T13:31:53.744Z,12.10
2023-01-04T13:34:25.341Z,12.10
2023-01-04T13:37:15.227Z,12.00
2023-01-04T13:39:47.402Z,12.00
2023-01-04T13:42:24.712Z,12.30
2023-01-04T13:45:25.467Z,12.20
2023-01-04T13:48:00.925Z,12.20
2023-01-04T13:50:33.967Z,12.10
2023-01-04T13:53:09.242Z,12.10
2023-01-04T13:55:39.375Z,12.10
2023-01-04T13:58:20.316Z,12.20
2023-01-04T14:00:53.559Z,12.10
2023-01-04T14:03:35.418Z,12.10
2023-01-04T14:06:23.179Z,12.00
2023-01-04T14:08:57.347Z,12.10
2023-01-04T14:11:46.563Z,12.20
2023-01-04T14:14:22.116Z,12.20
2023-01-04T14:16:54.171Z,12.30
2023-01-04T14:19:40.866Z,12.20
2023-01-04T14:22:30.474Z,12.30
2023-01-04T14:25:10.713Z,12.30
2023-01-04T14:27:41.019Z,12.30
2023-01-04T14:30:37.284Z,12.30
2023-01-04T14:33:18.150Z,12.30
2023-01-04T14:36:02.618Z,12.50
2023-01-04T14:38:33.429Z,12.30
2023-01-04T14:41:16.032Z,12.30
2023-01-04T14:43:46.791Z,12.30
2023-01-04T14:46:15.736Z,12.30
2023-01-04T14:48:43.779Z,12.30
2023-01-04T14:51:16.612Z,12.40
2023-01-04T14:53:46.887Z,12.30
2023-01-04T14:56:18.176Z,12.30
2023-01-04T14:58:46.527Z,12.30
2023-01-04T15:01:14.867Z,12.20
2023-01-04T15:03:43.463Z,12.20
2023-01-04T15:06:13.234Z,12.20
2023-01-04T15:08:41.708Z,12.20
2023-01-04T15:11:15.488Z,12.10
2023-01-04T15:13:45.205Z,12.30
2023-01-04T15:16:16.098Z,12.70
2023-01-04T15:18:53.669Z,12.60
2023-01-04T15:21:22.686Z,12.70
2023-01-04T15:23:50.688Z,12.70
2023-01-04T15:26:19.183Z,12.60
2023-01-04T15:28:51.377Z,12.70
2023-01-04T15:31:24.034Z,12.50
2023-01-04T15:33:59.404Z,12.40
2023-01-04T15:36:29.811Z,12.30
2023-01-04T15:38:58.555Z,12.30
2023-01-04T15:41:44.261Z,12.50
2023-01-04T15:44:21.221Z,12.40
2023-01-04T15:46:51.694Z,12.40
2023-01-04T15:49:27.421Z,12.50
2023-01-04T15:51:56.313Z,12.60
2023-01-04T15:54:26.311Z,12.60
2023-01-04T15:56:57.910Z,12.60
2023-01-04T15:59:29.626Z,12.60
2023-01-04T16:01:59.053Z,12.60
2023-01-04T16:04:28.840Z,12.60
2023-01-04T16:06:59.006Z,12.70
2023-01-04T16:09:29.283Z,12.70
2023-01-04T16:12:15.480Z,12.90
2023-01-04T16:14:45.721Z,12.80
2023-01-04T16:17:14.141Z,12.70
2023-01-04T16:19:42.559Z,12.90
2023-01-04T16:22:10.685Z,13.00
2023-01-04T16:27:35.442Z,12.90
2023-01-04T16:30:06.815Z,12.80
2023-01-04T16:32:36.411Z,12.80
2023-01-04T16:35:05.079Z,12.70
2023-01-04T16:37:33.079Z,12.90
2023-01-04T16:40:09.565Z,12.80
2023-01-04T16:42:39.650Z,12.80
2023-01-04T16:45:13.524Z,12.80
2023-01-04T16:47:45.879Z,12.90
2023-01-04T16:50:15.046Z,12.90
2023-01-04T16:52:45.329Z,12.90
2023-01-04T16:55:14.417Z,12.90
2023-01-04T16:57:45.251Z,12.90
2023-01-04T17:00:17.838Z,12.90
2023-01-04T17:02:46.471Z,13.00
2023-01-04T17:05:14.589Z,13.10
2023-01-04T17:07:44.806Z,13.00
2023-01-04T17:10:13.743Z,12.90
2023-01-04T17:12:49.411Z,12.80
2023-01-04T17:15:42.319Z,12.80
2023-01-04T17:18:14.500Z,12.80
2023-01-04T17:20:43.428Z,13.00
2023-01-04T17:23:11.498Z,12.80
2023-01-04T17:25:54.576Z,12.80
2023-01-04T17:28:25.293Z,12.60
2023-01-04T17:30:54.840Z,12.60
2023-01-04T17:33:23.918Z,12.60
2023-01-04T17:35:54.284Z,12.70
2023-01-04T17:38:22.755Z,12.70
2023-01-04T17:40:56.587Z,12.50
2023-01-04T17:43:24.599Z,12.50
2023-01-04T17:45:53.984Z,12.60
2023-01-04T17:48:24.696Z,12.50
2023-01-04T17:50:53.336Z,12.60
2023-01-04T17:53:21.366Z,12.50
2023-01-04T17:55:49.792Z,12.60
2023-01-04T17:58:21.633Z,12.70
2023-01-04T18:00:56.558Z,12.50
2023-01-04T18:03:27.070Z,12.60
2023-01-04T18:06:07.250Z,12.40
2023-01-04T18:08:45.177Z,12.40
2023-01-04T18:11:14.011Z,12.40
2023-01-04T18:13:43.646Z,12.40
2023-01-04T18:16:24.409Z,12.30
2023-01-04T18:18:56.144Z,12.40
2023-01-04T18:21:29.280Z,12.30
2023-01-04T18:24:34.874Z,12.20
2023-01-04T18:29:37.808Z,12.30
2023-01-04T18:32:07.841Z,12.20
2023-01-04T18:34:36.218Z,12.30
2023-01-04T18:37:04.339Z,12.30
2023-01-04T18:39:35.658Z,12.40
2023-01-04T18:42:04.313Z,12.50
2023-01-04T18:44:34.392Z,12.40
2023-01-04T18:47:04.660Z,12.40
2023-01-04T18:49:36.924Z,12.50
2023-01-04T18:52:06.412Z,12.40
2023-01-04T18:54:36.598Z,12.40
2023-01-04T18:57:07.486Z,12.50
2023-01-04T18:59:36.585Z,12.40
2023-01-04T19:02:07.231Z,12.40
2023-01-04T19:04:37.715Z,12.50
2023-01-04T19:07:07.042Z,12.50
2023-01-04T19:09:35.120Z,12.50
2023-01-04T19:12:03.349Z,12.60
2023-01-04T19:14:31.471Z,12.60
2023-01-04T19:16:59.625Z,12.60
2023-01-04T19:19:30.394Z,12.70
2023-01-04T19:21:59.943Z,12.80
2023-01-04T19:24:28.499Z,12.80
2023-01-04T19:27:02.534Z,12.60
2023-01-04T19:29:31.050Z,12.70
2023-01-04T19:31:59.517Z,12.70
2023-01-04T19:34:30.500Z,12.80
2023-01-04T19:37:00.026Z,12.70
2023-01-04T19:39:30.809Z,12.60
2023-01-04T19:42:00.865Z,12.50
2023-01-04T19:44:28.900Z,12.60
2023-01-04T19:46:57.039Z,12.50
2023-01-04T19:49:25.492Z,12.60
2023-01-04T19:51:56.406Z,12.50
2023-01-04T19:54:26.112Z,12.50
2023-01-04T19:56:54.702Z,12.40
2023-01-04T19:59:24.544Z,12.40
2023-01-04T20:01:53.052Z,12.50
2023-01-04T20:04:21.315Z,12.50
2023-01-04T20:06:49.803Z,12.60
2023-01-04T20:09:33.525Z,12.80
2023-01-04T20:12:03.089Z,12.50
2023-01-04T20:14:31.928Z,12.50
2023-01-04T20:16:59.965Z,12.50
2023-01-04T20:19:28.586Z,12.60
2023-01-04T20:22:01.790Z,12.50
2023-01-04T20:24:30.076Z,12.50
2023-01-04T20:26:58.129Z,12.50
2023-01-04T20:29:30.964Z,12.50
2023-01-04T20:32:00.579Z,12.60
2023-01-04T20:34:29.174Z,12.40
2023-01-04T20:36:57.282Z,12.30
2023-01-04T20:39:25.711Z,12.40
2023-01-04T20:42:18.313Z,12.50
2023-01-04T20:44:47.858Z,12.60
2023-01-04T20:47:18.882Z,12.50
2023-01-04T20:49:47.758Z,12.50
2023-01-04T20:52:16.436Z,12.50
2023-01-04T20:54:44.759Z,12.50
2023-01-04T20:57:15.445Z,12.50
2023-01-04T20:59:47.436Z,12.40
2023-01-04T21:02:20.609Z,12.40
2023-01-04T21:04:54.704Z,12.30
2023-01-04T21:07:22.711Z,12.30
2023-01-04T21:09:51.964Z,12.30
2023-01-04T21:12:20.620Z,12.40
2023-01-04T21:14:48.815Z,12.40
2023-01-04T21:17:20.747Z,12.30
2023-01-04T21:19:49.613Z,12.40
2023-01-04T21:22:18.483Z,12.30
2023-01-04T21:24:48.932Z,12.30
2023-01-04T21:27:17.529Z,12.30
2023-01-04T21:29:45.503Z,12.30
2023-01-04T21:32:15.836Z,12.40
2023-01-04T21:34:45.965Z,12.50
2023-01-04T21:37:14.023Z,12.40
2023-01-04T21:39:53.142Z,12.40
2023-01-04T21:42:21.346Z,12.40
2023-01-04T21:44:53.900Z,12.40
2023-01-04T21:47:24.915Z,12.40
2023-01-04T21:49:56.624Z,12.50
2023-01-04T21:52:25.363Z,12.60
2023-01-04T21:54:53.582Z,12.60
2023-01-04T21:57:22.100Z,12.50
2023-01-04T21:59:51.482Z,12.60
2023-01-04T22:02:23.161Z,12.70
2023-01-04T22:04:54.547Z,12.70
2023-01-04T22:07:26.460Z,12.60
2023-01-04T22:09:57.677Z,12.60
2023-01-04T22:12:26.334Z,12.70
2023-01-04T22:14:54.947Z,12.60
2023-01-04T22:17:22.917Z,12.50
2023-01-04T22:19:51.342Z,12.40
2023-01-04T22:22:19.910Z,12.40
2023-01-04T22:24:49.553Z,12.50
2023-01-04T22:27:24.843Z,12.40
2023-01-04T22:29:54.419Z,12.30
2023-01-04T22:32:22.413Z,12.40
2023-01-04T22:34:51.277Z,12.30
2023-01-04T22:37:19.675Z,12.30
2023-01-04T22:39:49.040Z,12.40
2023-01-04T22:42:17.814Z,12.50
2023-01-04T22:44:46.093Z,12.50
2023-01-04T22:47:14.180Z,12.40
2023-01-04T22:49:42.140Z,12.40
2023-01-04T22:52:10.977Z,12.40
2023-01-04T22:54:39.026Z,12.50
2023-01-04T22:57:08.457Z,12.60
2023-01-04T22:59:37.247Z,12.60
2023-01-04T23:02:08.375Z,12.40
2023-01-04T23:04:37.280Z,12.60
2023-01-04T23:07:05.385Z,12.50
2023-01-04T23:09:34.113Z,12.50
2023-01-04T23:12:02.438Z,12.40
2023-01-04T23:14:31.940Z,12.40
2023-01-04T23:17:00.107Z,12.50
2023-01-04T23:19:29.636Z,12.50
2023-01-04T23:22:00.268Z,12.50
2023-01-04T23:24:28.345Z,12.50
2023-01-04T23:26:56.868Z,12.60
2023-01-04T23:29:27.765Z,12.60
2023-01-04T23:32:00.540Z,12.40
2023-01-04T23:34:30.281Z,12.40
2023-01-04T23:37:00.112Z,12.40
2023-01-04T23:39:29.027Z,12.40
2023-01-04T23:41:59.590Z,12.50
2023-01-04T23:44:30.932Z,12.60
2023-01-04T23:49:33.401Z,12.40
2023-01-04T23:52:02.371Z,12.40
2023-01-04T23:54:30.656Z,12.50
2023-01-04T23:57:00.043Z,12.50
2023-01-04T23:59:29.064Z,12.50
